Time;durP1;ratioP1;P1;durP2;ratioP2;P2;SDS_P1;SDS_P2;PMS_P1;PMS_P2;Temp;Humidity;BMP_temperature;BMP_pressure;BME280_temperature;BME280_humidity;BME280_pressure;Samples;Min_cycle;Max_cycle;Signal;HPM_P1;HPM_P2
2023/02/25 00:02:37;;;;;;;17.92;10.90;;;;;;;;;;6143137;23;20020;-96
2023/02/25 00:08:09;;;;;;;;;;;;;;;;;;;;;
2023/02/25 00:37:03;;;;;;;14.70;4.95;;;;;;;;;;6216560;22;20028;-96
2023/02/25 00:39:54;;;;;;;12.95;5.65;;;;;;;;;;6229039;23;20031;-96
2023/02/25 00:42:25;;;;;;;13.98;5.45;;;;;;;;;;6181360;23;20025;-96
2023/02/25 00:44:51;;;;;;;17.65;4.50;;;;;;;;;;6196330;23;20020;-96
2023/02/25 00:47:20;;;;;;;11.43;4.53;;;;;;;;;;6195394;23;20009;-95
2023/02/25 00:49:46;;;;;;;15.35;4.50;;;;;;;;;;6198723;23;20009;-93
2023/02/25 00:52:13;;;;;;;13.75;3.92;;;;;;;;;;6186812;23;20001;-95
2023/02/25 00:54:42;;;;;;;10.57;4.18;;;;;;;;;;6193749;23;20017;-96
2023/02/25 00:57:16;;;;;;;10.73;2.85;;;;;;;;;;6221183;23;20001;-96
2023/02/25 00:59:50;;;;;;;9.27;3.00;;;;;;;;;;6197467;23;20012;-96
2023/02/25 01:02:18;;;;;;;6.75;2.50;;;;;;;;;;6194954;23;20023;-96
2023/02/25 01:04:45;;;;;;;9.18;2.30;;;;;;;;;;6209452;23;20059;-96
2023/02/25 01:07:11;;;;;;;4.88;2.10;;;;;;;;;;6211321;23;20001;-95
2023/02/25 01:09:38;;;;;;;5.47;2.25;;;;;;;;;;6187704;23;19989;-96
2023/02/25 01:12:04;;;;;;;6.70;2.00;;;;;;;;;;6178328;23;20032;-96
2023/02/25 01:14:33;;;;;;;4.25;1.60;;;;;;;;;;6191814;23;20008;-96
2023/02/25 01:17:02;;;;;;;7.65;1.88;;;;;;;;;;6187032;23;20442;-96
2023/02/25 01:19:28;;;;;;;6.07;1.80;;;;;;;;;;6185025;23;20466;-95
2023/02/25 01:21:56;;;;;;;5.38;1.67;;;;;;;;;;6184315;23;20390;-94
2023/02/25 01:24:27;;;;;;;5.18;1.77;;;;;;;;;;6184648;23;20001;-93
2023/02/25 01:26:54;;;;;;;3.47;1.80;;;;;;;;;;6187008;23;20009;-95
2023/02/25 01:29:25;;;;;;;4.28;1.48;;;;;;;;;;6211907;23;20069;-96
2023/02/25 01:31:51;;;;;;;3.80;1.13;;;;;;;;;;6186120;23;20415;-96
2023/02/25 01:34:18;;;;;;;3.58;1.30;;;;;;;;;;6184745;23;20015;-96
2023/02/25 01:36:45;;;;;;;3.15;1.20;;;;;;;;;;6214955;23;20461;-95
2023/02/25 01:39:12;;;;;;;6.03;1.30;;;;;;;;;;6185576;23;20017;-96
2023/02/25 01:41:49;;;;;;;2.58;1.00;;;;;;;;;;6189000;23;20016;-96
2023/02/25 01:44:19;;;;;;;4.28;1.27;;;;;;;;;;6168492;23;20004;-96
2023/02/25 01:46:47;;;;;;;3.78;1.52;;;;;;;;;;6192879;23;20009;-96
2023/02/25 01:49:43;;;;;;;5.78;1.23;;;;;;;;;;6219601;23;20020;-96
2023/02/25 01:52:13;;;;;;;5.50;1.30;;;;;;;;;;6191258;23;20028;-96
2023/02/25 01:54:50;;;;;;;3.38;1.23;;;;;;;;;;6221367;23;20004;-96
2023/02/25 01:57:36;;;;;;;3.10;1.20;;;;;;;;;;6220531;23;20004;-96
2023/02/25 02:06:37;;;;;;;3.88;1.60;;;;;;;;;;6221409;23;20311;-95
2023/02/25 02:09:26;;;;;;;4.10;1.65;;;;;;;;;;6221212;23;20005;-90
2023/02/25 02:11:53;;;;;;;5.70;1.77;;;;;;;;;;6177870;23;20004;-96
2023/02/25 02:17:31;;;;;;;6.13;1.95;;;;;;;;;;6228118;23;20024;-96
2023/02/25 02:20:11;;;;;;;5.93;2.15;;;;;;;;;;6235978;23;20016;-95
2023/02/25 02:22:46;;;;;;;8.23;2.58;;;;;;;;;;6235497;23;20004;-96
2023/02/25 02:25:19;;;;;;;9.07;2.75;;;;;;;;;;6256997;23;19995;-96
2023/02/25 02:28:17;;;;;;;;;;;;;;;;;;;;;
2023/02/25 02:31:02;;;;;;;;;;;;;;;;;;;;;
2023/02/25 02:33:44;;;;;;;6.30;3.03;;;;;;;;;;6210091;22;20009;-96
2023/02/25 02:36:24;;;;;;;6.53;2.85;;;;;;;;;;6236170;23;20004;-96
2023/02/25 02:39:10;;;;;;;;;;;;;;;;;;;;;
2023/02/25 02:41:41;;;;;;;5.65;2.65;;;;;;;;;;6228838;23;20036;-96
2023/02/25 02:44:48;;;;;;;6.55;2.95;;;;;;;;;;6198844;23;20060;-96
2023/02/25 02:47:49;;;;;;;5.22;2.55;;;;;;;;;;6229427;23;20024;-96
2023/02/25 02:50:53;;;;;;;3.58;2.28;;;;;;;;;;6186989;22;20017;-96
2023/02/25 02:53:32;;;;;;;5.03;2.40;;;;;;;;;;6066777;23;20037;-95
2023/02/25 03:14:22;;;;;;;6.57;3.58;;;;;;;;;;6193355;23;20051;-96
2023/02/25 03:17:17;;;;;;;5.55;3.13;;;;;;;;;;6202437;23;20328;-96
2023/02/25 03:20:24;;;;;;;5.97;3.38;;;;;;;;;;6204162;23;20115;-96
2023/02/25 03:22:56;;;;;;;4.82;3.30;;;;;;;;;;6030642;23;20083;-96
2023/02/25 03:26:09;;;;;;;4.85;2.63;;;;;;;;;;6050135;23;20039;-96
2023/02/25 03:28:49;;;;;;;;;;;;;;;;;;;;;
2023/02/25 03:31:59;;;;;;;5.75;2.88;;;;;;;;;;6063196;23;20056;-96
2023/02/25 03:34:56;;;;;;;4.38;2.83;;;;;;;;;;6197945;23;20036;-95
2023/02/25 03:37:49;;;;;;;5.50;2.55;;;;;;;;;;6047197;23;20087;-96
2023/02/25 03:40:37;;;;;;;4.75;2.40;;;;;;;;;;6187286;23;20024;-96
2023/02/25 03:43:26;;;;;;;3.10;1.70;;;;;;;;;;6170188;23;20016;-95
2023/02/25 03:45:58;;;;;;;4.50;2.15;;;;;;;;;;6162799;23;20080;-96
2023/02/25 03:48:26;;;;;;;4.07;2.30;;;;;;;;;;6193919;23;20005;-96
2023/02/25 03:50:58;;;;;;;5.50;2.92;;;;;;;;;;6168878;23;20018;-95
2023/02/25 03:53:37;;;;;;;5.45;2.95;;;;;;;;;;6172047;23;20012;-96
2023/02/25 03:56:27;;;;;;;6.43;3.00;;;;;;;;;;6212088;23;20003;-96
2023/02/25 03:59:04;;;;;;;6.93;3.35;;;;;;;;;;6189895;23;20035;-96
2023/02/25 04:01:51;;;;;;;5.22;3.03;;;;;;;;;;6207660;23;20032;-96
2023/02/25 04:04:48;;;;;;;6.03;3.00;;;;;;;;;;6197291;23;20009;-96
2023/02/25 04:07:55;;;;;;;4.30;2.35;;;;;;;;;;6192799;23;20470;-96
2023/02/25 04:11:00;;;;;;;3.60;1.70;;;;;;;;;;6191536;23;20005;-96
2023/02/25 04:13:26;;;;;;;3.78;1.80;;;;;;;;;;6140483;23;20028;-94
2023/02/25 04:15:57;;;;;;;4.45;2.30;;;;;;;;;;6164424;23;20016;-95
2023/02/25 04:18:27;;;;;;;3.67;1.95;;;;;;;;;;6171071;23;20005;-91
2023/02/25 04:21:12;;;;;;;3.38;1.90;;;;;;;;;;6166394;23;20017;-96
2023/02/25 04:23:44;;;;;;;5.15;2.20;;;;;;;;;;6191400;23;20009;-96
2023/02/25 04:26:11;;;;;;;4.60;2.13;;;;;;;;;;6139741;23;20024;-96
2023/02/25 04:28:38;;;;;;;4.68;2.25;;;;;;;;;;6164854;23;20016;-96
2023/02/25 04:31:05;;;;;;;4.80;2.63;;;;;;;;;;6189364;23;20036;-96
2023/02/25 04:33:32;;;;;;;5.18;2.47;;;;;;;;;;6139675;23;20431;-96
2023/02/25 04:35:59;;;;;;;5.15;2.05;;;;;;;;;;6154871;23;20071;-96
2023/02/25 04:45:14;;;;;;;5.00;2.20;;;;;;;;;;6189470;23;20035;-96
2023/02/25 04:47:43;;;;;;;4.82;2.10;;;;;;;;;;6161796;23;20016;-95
2023/02/25 04:50:10;;;;;;;5.07;2.20;;;;;;;;;;6161232;23;20009;-96
2023/02/25 04:52:36;;;;;;;5.93;2.58;;;;;;;;;;6164493;23;20009;-95
2023/02/25 04:55:03;;;;;;;5.75;2.53;;;;;;;;;;6164587;23;20012;-96
2023/02/25 04:57:30;;;;;;;4.75;2.53;;;;;;;;;;6187803;23;20103;-93
2023/02/25 04:59:57;;;;;;;6.43;2.30;;;;;;;;;;6160479;23;20024;-95
2023/02/25 05:02:36;;;;;;;5.53;2.30;;;;;;;;;;6162783;23;20006;-96
2023/02/25 05:05:04;;;;;;;3.72;1.98;;;;;;;;;;6161383;23;20092;-92
2023/02/25 05:07:31;;;;;;;4.55;2.05;;;;;;;;;;6185510;23;20001;-95
2023/02/25 05:10:06;;;;;;;5.38;2.67;;;;;;;;;;6169757;23;20424;-93
2023/02/25 05:12:33;;;;;;;4.85;2.63;;;;;;;;;;6163827;23;20428;-96
2023/02/25 05:15:02;;;;;;;5.43;2.08;;;;;;;;;;6163170;23;20490;-96
2023/02/25 05:17:47;;;;;;;4.43;2.15;;;;;;;;;;6167086;23;20009;-96
2023/02/25 05:20:14;;;;;;;3.90;1.98;;;;;;;;;;6163988;23;20024;-91
2023/02/25 05:22:42;;;;;;;4.97;1.80;;;;;;;;;;6164999;23;20000;-96
2023/02/25 05:25:10;;;;;;;3.60;1.80;;;;;;;;;;6189021;23;20103;-96
2023/02/25 05:27:38;;;;;;;3.83;1.80;;;;;;;;;;6166075;23;20012;-96
2023/02/25 05:30:13;;;;;;;4.63;1.90;;;;;;;;;;6190142;23;20009;-96
2023/02/25 05:32:40;;;;;;;3.85;2.20;;;;;;;;;;6162770;23;20005;-96
2023/02/25 05:35:10;;;;;;;5.18;1.83;;;;;;;;;;6167247;23;20020;-92
2023/02/25 05:37:39;;;;;;;4.63;2.08;;;;;;;;;;6138837;23;20019;-96
2023/02/25 05:40:08;;;;;;;3.70;2.05;;;;;;;;;;6165098;23;20005;-96
2023/02/25 05:42:50;;;;;;;3.38;1.83;;;;;;;;;;6189117;23;20013;-96
2023/02/25 05:45:53;;;;;;;4.25;1.95;;;;;;;;;;6188090;23;20005;-96
2023/02/25 05:54:27;;;;;;;4.32;1.80;;;;;;;;;;6204575;23;20024;-96
2023/02/25 05:56:53;;;;;;;3.47;1.75;;;;;;;;;;6188034;23;20060;-95
2023/02/25 05:59:27;;;;;;;3.17;1.55;;;;;;;;;;6188471;23;20001;-94
2023/02/25 06:01:56;;;;;;;2.78;1.58;;;;;;;;;;6190572;23;20008;-96
2023/02/25 06:04:23;;;;;;;2.97;1.52;;;;;;;;;;6188546;23;20303;-96
2023/02/25 06:06:49;;;;;;;2.58;1.50;;;;;;;;;;6192745;23;20004;-96
2023/02/25 06:09:19;;;;;;;2.55;1.38;;;;;;;;;;6191519;23;20080;-94
2023/02/25 06:14:34;;;;;;;3.45;1.38;;;;;;;;;;6168366;23;20009;-93
2023/02/25 06:17:01;;;;;;;2.25;1.42;;;;;;;;;;6187833;23;20004;-95
2023/02/25 06:19:28;;;;;;;2.40;1.17;;;;;;;;;;6190610;23;20008;-93
2023/02/25 06:21:54;;;;;;;2.28;1.30;;;;;;;;;;6188659;23;20012;-95
2023/02/25 06:24:21;;;;;;;2.40;1.10;;;;;;;;;;6189728;23;20133;-96
2023/02/25 06:26:47;;;;;;;3.38;1.85;;;;;;;;;;6191703;23;20008;-96
2023/02/25 06:29:13;;;;;;;2.35;1.50;;;;;;;;;;6194368;23;20024;-95
2023/02/25 06:31:40;;;;;;;2.10;1.17;;;;;;;;;;6195372;23;20039;-96
2023/02/25 06:34:06;;;;;;;2.25;1.35;;;;;;;;;;6193886;23;20004;-96
2023/02/25 06:36:33;;;;;;;2.90;1.40;;;;;;;;;;6195155;23;20012;-95
2023/02/25 06:39:02;;;;;;;2.40;1.30;;;;;;;;;;6194984;23;20005;-95
2023/02/25 06:41:30;;;;;;;2.53;1.27;;;;;;;;;;6221028;23;20461;-95
2023/02/25 06:43:56;;;;;;;2.55;1.23;;;;;;;;;;6195619;23;20005;-95
2023/02/25 06:46:25;;;;;;;2.40;1.23;;;;;;;;;;6215947;23;20031;-94
2023/02/25 06:48:51;;;;;;;2.03;1.00;;;;;;;;;;6210467;23;20018;-96
2023/02/25 06:51:18;;;;;;;1.70;0.90;;;;;;;;;;6226773;23;20012;-93
2023/02/25 06:53:46;;;;;;;2.10;1.10;;;;;;;;;;6191207;23;20079;-95
2023/02/25 06:56:13;;;;;;;3.65;1.10;;;;;;;;;;6194194;23;20017;-96
2023/02/25 06:58:41;;;;;;;2.13;1.10;;;;;;;;;;6195311;23;20012;-95
2023/02/25 07:01:08;;;;;;;2.13;1.40;;;;;;;;;;6195735;23;20024;-95
2023/02/25 07:03:34;;;;;;;2.10;1.20;;;;;;;;;;6195263;23;20005;-94
2023/02/25 07:06:00;;;;;;;2.67;1.90;;;;;;;;;;6213609;23;20071;-94
2023/02/25 07:08:31;;;;;;;2.30;1.40;;;;;;;;;;6193608;23;20001;-96
2023/02/25 07:11:08;;;;;;;3.83;1.90;;;;;;;;;;6191345;23;20095;-96
2023/02/25 07:13:35;;;;;;;2.58;1.40;;;;;;;;;;6190394;23;20460;-95
2023/02/25 07:16:01;;;;;;;3.83;3.00;;;;;;;;;;6192525;23;20040;-93
2023/02/25 07:21:32;;;;;;;1.80;0.93;;;;;;;;;;6216571;23;20023;-96
2023/02/25 07:27:02;;;;;;;1.92;1.17;;;;;;;;;;6217551;23;20011;-96
2023/02/25 07:29:28;;;;;;;1.60;0.98;;;;;;;;;;6192068;23;20009;-95
2023/02/25 07:31:54;;;;;;;2.90;1.73;;;;;;;;;;6192279;23;20054;-95
2023/02/25 07:34:21;;;;;;;2.78;1.65;;;;;;;;;;6194277;23;20005;-95
2023/02/25 07:36:47;;;;;;;2.47;1.80;;;;;;;;;;6191864;23;20000;-95
2023/02/25 07:39:13;;;;;;;1.40;0.80;;;;;;;;;;6190150;23;20059;-96
2023/02/25 07:41:39;;;;;;;1.40;0.93;;;;;;;;;;6191018;23;20005;-96
2023/02/25 07:44:06;;;;;;;2.00;0.70;;;;;;;;;;6192992;23;20092;-96
2023/02/25 07:46:33;;;;;;;1.75;0.93;;;;;;;;;;6192356;23;20004;-91
2023/02/25 07:48:59;;;;;;;4.72;1.48;;;;;;;;;;6192256;23;20088;-96
2023/02/25 07:51:26;;;;;;;1.63;0.80;;;;;;;;;;6219643;23;20833;-96
2023/02/25 07:53:53;;;;;;;2.60;0.82;;;;;;;;;;6189755;23;20083;-95
2023/02/25 07:56:20;;;;;;;2.40;1.60;;;;;;;;;;6163453;23;20013;-95
2023/02/25 07:58:46;;;;;;;1.45;0.70;;;;;;;;;;6165581;23;20009;-95
2023/02/25 08:01:24;;;;;;;1.00;0.55;;;;;;;;;;6166080;23;20021;-96
2023/02/25 08:03:54;;;;;;;1.35;0.60;;;;;;;;;;6161451;23;20001;-95
2023/02/25 08:07:00;;;;;;;;;;;;;;;;;;;;;
2023/02/25 08:12:23;;;;;;;1.00;0.63;;;;;;;;;;6156014;23;20064;-95
2023/02/25 08:14:50;;;;;;;0.70;0.40;;;;;;;;;;6169809;23;20093;-96
2023/02/25 08:17:23;;;;;;;1.00;0.55;;;;;;;;;;6194610;23;20012;-96
2023/02/25 08:19:51;;;;;;;1.70;0.45;;;;;;;;;;6166673;23;20013;-96
2023/02/25 08:22:37;;;;;;;1.88;0.40;;;;;;;;;;6172273;23;20013;-89
2023/02/25 08:25:48;;;;;;;1.17;0.47;;;;;;;;;;6168035;23;20013;-96
2023/02/25 08:28:31;;;;;;;;;;;;;;;;;;;;;
2023/02/25 08:31:06;;;;;;;0.73;0.40;;;;;;;;;;6157788;23;20040;-96
2023/02/25 08:33:33;;;;;;;1.98;0.40;;;;;;;;;;6163702;23;20016;-91
2023/02/25 08:36:26;;;;;;;0.98;0.40;;;;;;;;;;6165735;23;20005;-95
2023/02/25 08:38:57;;;;;;;1.50;0.40;;;;;;;;;;6190435;23;20051;-94
2023/02/25 08:41:25;;;;;;;1.20;0.30;;;;;;;;;;6161708;23;20020;-95
2023/02/25 08:43:54;;;;;;;1.15;0.40;;;;;;;;;;6164056;23;20067;-95
2023/02/25 08:46:21;;;;;;;0.90;0.38;;;;;;;;;;6163768;23;20016;-96
2023/02/25 08:48:51;;;;;;;1.85;0.40;;;;;;;;;;6192869;23;20001;-96
2023/02/25 08:51:19;;;;;;;0.88;0.43;;;;;;;;;;6166248;23;20005;-96
2023/02/25 08:53:45;;;;;;;0.85;0.32;;;;;;;;;;6177884;23;20042;-96
2023/02/25 08:56:13;;;;;;;1.77;0.50;;;;;;;;;;6192468;23;20008;-95
2023/02/25 08:58:39;;;;;;;1.20;0.38;;;;;;;;;;6192942;23;20079;-93
2023/02/25 09:01:07;;;;;;;2.45;0.60;;;;;;;;;;6219235;23;20020;-92
2023/02/25 09:03:37;;;;;;;1.15;0.43;;;;;;;;;;6209307;23;20012;-93
2023/02/25 09:06:04;;;;;;;2.30;0.50;;;;;;;;;;6221164;23;20071;-95
2023/02/25 09:08:35;;;;;;;1.35;0.40;;;;;;;;;;6219236;23;20004;-96
2023/02/25 09:11:04;;;;;;;2.38;0.40;;;;;;;;;;6192948;23;20021;-92
2023/02/25 09:13:30;;;;;;;2.80;0.90;;;;;;;;;;6192050;23;20035;-92
2023/02/25 09:15:57;;;;;;;1.75;0.45;;;;;;;;;;6193591;23;20011;-95
2023/02/25 09:18:35;;;;;;;1.15;0.45;;;;;;;;;;6195152;23;20013;-95
2023/02/25 09:21:01;;;;;;;3.25;1.30;;;;;;;;;;6200584;23;20044;-96
2023/02/25 09:23:45;;;;;;;2.83;0.80;;;;;;;;;;6199335;23;20009;-96
2023/02/25 09:26:30;;;;;;;1.08;0.30;;;;;;;;;;6218322;23;20005;-90
2023/02/25 09:29:20;;;;;;;1.02;0.40;;;;;;;;;;6220389;23;20012;-95
2023/02/25 09:31:59;;;;;;;1.95;0.40;;;;;;;;;;6197614;23;20005;-95
2023/02/25 09:34:31;;;;;;;1.38;0.40;;;;;;;;;;6223126;23;20008;-96
2023/02/25 09:37:21;;;;;;;1.35;0.40;;;;;;;;;;6228192;23;20008;-94
2023/02/25 09:39:47;;;;;;;;;;;;;;;;;;6216292;23;20080;-95
2023/02/25 09:42:37;;;;;;;2.03;0.50;;;;;;;;;;6239918;23;19904;-95
2023/02/25 09:45:26;;;;;;;1.55;0.47;;;;;;;;;;6228984;23;20040;-95
2023/02/25 09:48:23;;;;;;;1.13;0.38;;;;;;;;;;6191845;23;20430;-94
2023/02/25 09:51:25;;;;;;;1.85;0.60;;;;;;;;;;6198628;23;20039;-96
2023/02/25 10:00:10;;;;;;;1.55;0.50;;;;;;;;;;6226844;23;20020;-94
2023/02/25 10:02:51;;;;;;;;;;;;;;;;;;;;;
2023/02/25 10:11:12;;;;;;;2.80;0.52;;;;;;;;;;6222448;22;20154;-94
2023/02/25 10:17:06;;;;;;;1.67;0.50;;;;;;;;;;6203800;23;20032;-91
2023/02/25 10:19:51;;;;;;;0.95;0.38;;;;;;;;;;6163554;23;20005;-91
2023/02/25 10:22:39;;;;;;;1.88;0.45;;;;;;;;;;6164370;23;20013;-93
2023/02/25 10:25:33;;;;;;;2.13;0.70;;;;;;;;;;6170003;23;20012;-95
2023/02/25 10:28:17;;;;;;;3.25;0.60;;;;;;;;;;6179353;23;20005;-92
2023/02/25 10:31:01;;;;;;;1.85;0.70;;;;;;;;;;6160984;23;20013;-92
2023/02/25 10:33:43;;;;;;;1.73;0.57;;;;;;;;;;6163174;23;20104;-96
2023/02/25 10:36:42;;;;;;;2.63;0.70;;;;;;;;;;6167820;23;20003;-96
2023/02/25 10:39:25;;;;;;;3.60;0.50;;;;;;;;;;6172849;23;20010;-96
2023/02/25 10:41:54;;;;;;;2.38;0.50;;;;;;;;;;6188955;23;20762;-93
2023/02/25 10:44:43;;;;;;;1.80;0.50;;;;;;;;;;6164352;23;20005;-96
2023/02/25 10:47:17;;;;;;;1.52;0.50;;;;;;;;;;6190600;23;20016;-96
2023/02/25 10:50:15;;;;;;;1.40;0.50;;;;;;;;;;6164791;23;20029;-96
2023/02/25 10:52:53;;;;;;;1.58;0.47;;;;;;;;;;6195921;23;20002;-96
2023/02/25 10:55:27;;;;;;;4.80;0.52;;;;;;;;;;6165411;23;20009;-96
2023/02/25 10:57:56;;;;;;;4.78;0.60;;;;;;;;;;6160337;23;20001;-96
2023/02/25 11:00:35;;;;;;;1.85;0.35;;;;;;;;;;6162953;23;20048;-96
2023/02/25 11:03:06;;;;;;;2.42;0.40;;;;;;;;;;6174321;23;20073;-94
2023/02/25 11:05:36;;;;;;;1.38;0.50;;;;;;;;;;6203047;23;20009;-96
2023/02/25 11:09:04;;;;;;;2.63;0.30;;;;;;;;;;6201493;23;20005;-96
2023/02/25 11:11:53;;;;;;;1.80;0.40;;;;;;;;;;6090786;23;20105;-96
2023/02/25 11:14:29;;;;;;;2.10;0.50;;;;;;;;;;6189987;23;20005;-96
2023/02/25 11:17:07;;;;;;;2.08;0.50;;;;;;;;;;6183889;23;20025;-95
2023/02/25 11:19:45;;;;;;;2.33;0.50;;;;;;;;;;6189665;23;20009;-96
2023/02/25 11:22:44;;;;;;;1.30;0.50;;;;;;;;;;6196444;23;20001;-96
2023/02/25 11:28:50;;;;;;;1.25;0.35;;;;;;;;;;6129108;23;20035;-96
2023/02/25 11:31:48;;;;;;;1.55;0.40;;;;;;;;;;6082230;23;20011;-96
2023/02/25 11:34:36;;;;;;;1.60;0.35;;;;;;;;;;6078126;23;20011;-96
2023/02/25 11:37:21;;;;;;;2.60;0.90;;;;;;;;;;6054947;23;20140;-95
2023/02/25 11:39:59;;;;;;;;;;;;;;;;;;6076878;23;20011;-96
2023/02/25 11:42:42;;;;;;;2.88;0.65;;;;;;;;;;6103568;23;19904;-96
2023/02/25 11:45:16;;;;;;;2.67;0.63;;;;;;;;;;6108362;23;20033;-94
2023/02/25 11:47:44;;;;;;;2.03;0.65;;;;;;;;;;6134993;23;20017;-96
2023/02/25 11:50:28;;;;;;;2.53;0.60;;;;;;;;;;6109406;23;20006;-95
2023/02/25 11:53:12;;;;;;;2.97;1.10;;;;;;;;;;6105031;23;20365;-91
2023/02/25 11:56:07;;;;;;;2.33;0.68;;;;;;;;;;6123566;23;20009;-96
2023/02/25 11:58:52;;;;;;;3.45;1.33;;;;;;;;;;6127968;23;20001;-96
2023/02/25 12:01:24;;;;;;;3.25;1.50;;;;;;;;;;6194851;23;20019;-95
2023/02/25 12:03:52;;;;;;;7.07;3.67;;;;;;;;;;6190512;23;19997;-96
2023/02/25 12:12:28;;;;;;;1.65;0.70;;;;;;;;;;6213681;23;20009;-90
2023/02/25 12:15:13;;;;;;;1.73;0.65;;;;;;;;;;6226347;23;20005;-95
2023/02/25 12:21:05;;;;;;;;;;;;;;;;;;;;;
2023/02/25 12:23:50;;;;;;;2.13;0.50;;;;;;;;;;6219748;23;20020;-91
2023/02/25 12:26:22;;;;;;;1.48;0.50;;;;;;;;;;6222919;23;20032;-95
2023/02/25 12:28:53;;;;;;;1.48;0.40;;;;;;;;;;6219069;23;20008;-95
2023/02/25 12:31:39;;;;;;;2.78;0.70;;;;;;;;;;6218100;23;20047;-91
2023/02/25 12:40:33;;;;;;;1.55;0.60;;;;;;;;;;6092492;23;20038;-91
2023/02/25 13:04:54;;;;;;;3.75;0.80;;;;;;;;;;6199377;22;20055;-95
2023/02/25 13:07:39;;;;;;;2.53;0.70;;;;;;;;;;6191392;23;20009;-96
2023/02/25 13:10:12;;;;;;;1.58;0.50;;;;;;;;;;6196570;23;20004;-96
2023/02/25 13:12:42;;;;;;;;;;;;;;;;;;6235323;23;19989;-96
2023/02/25 13:15:19;;;;;;;3.47;0.50;;;;;;;;;;6223994;23;19904;-96
2023/02/25 13:18:20;;;;;;;1.75;0.65;;;;;;;;;;6199944;23;20387;-96
2023/02/25 13:21:05;;;;;;;2.05;0.60;;;;;;;;;;6202033;23;20020;-96
2023/02/25 13:23:48;;;;;;;6.53;1.60;;;;;;;;;;6209879;23;20024;-96
2023/02/25 13:26:50;;;;;;;2.58;0.93;;;;;;;;;;6200605;23;20004;-96
2023/02/25 13:45:47;;;;;;;2.47;0.90;;;;;;;;;;6173273;22;20055;-96
2023/02/25 13:48:21;;;;;;;2.42;1.00;;;;;;;;;;6075362;23;20019;-96
2023/02/25 13:51:03;;;;;;;1.80;0.80;;;;;;;;;;6175888;23;19997;-96
2023/02/25 13:53:54;;;;;;;2.38;0.90;;;;;;;;;;6165756;23;20048;-95
2023/02/25 13:56:42;;;;;;;5.47;2.20;;;;;;;;;;6198445;23;20001;-95
2023/02/25 13:59:14;;;;;;;1.63;0.55;;;;;;;;;;6175150;23;20017;-93
2023/02/25 14:07:57;;;;;;;4.57;1.10;;;;;;;;;;6187293;22;20021;-96
2023/02/25 14:13:43;;;;;;;2.83;0.52;;;;;;;;;;6068283;23;20017;-96
2023/02/25 14:19:46;;;;;;;3.03;1.45;;;;;;;;;;6220341;23;20093;-96
2023/02/25 14:22:48;;;;;;;;;;;;;;;;;;;;;
2023/02/25 14:25:41;;;;;;;3.30;0.80;;;;;;;;;;6228801;23;20043;-94
2023/02/25 14:35:06;;;;;;;3.65;1.13;;;;;;;;;;6115659;23;20010;-96
2023/02/25 14:44:54;;;;;;;2.28;0.80;;;;;;;;;;6202993;23;20029;-96
2023/02/25 14:47:19;;;;;;;1.48;0.57;;;;;;;;;;6051549;23;20012;-95
2023/02/25 16:11:44;;;;;;;3.83;0.80;;;;;;;;;;6183196;22;20080;31
2023/02/25 16:18:05;;;;;;;;;;;;;;;;;;;;;
2023/02/25 16:44:34;;;;;;;;;;;;;;;;;;;;;
2023/02/25 16:47:51;;;;;;;3.05;1.30;;;;;;;;;;6195677;23;19993;-94
2023/02/25 17:35:35;;;;;;;3.90;1.38;;;;;;;;;;6133239;23;20013;-96
2023/02/25 17:38:09;;;;;;;3.58;1.70;;;;;;;;;;6204159;23;20031;-91
2023/02/25 17:41:18;;;;;;;33.95;13.68;;;;;;;;;;6254040;22;20016;-95
2023/02/25 17:44:19;;;;;;;;;;;;;;;;;;;;;
2023/02/25 17:47:14;;;;;;;5.75;2.85;;;;;;;;;;6164289;23;20037;-94
2023/02/25 17:50:11;;;;;;;;;;;;;;;;;;;;;
2023/02/25 18:13:40;;;;;;;3.03;1.63;;;;;;;;;;6169522;23;21096;-93
2023/02/25 19:06:36;;;;;;;5.10;1.88;;;;;;;;;;6166105;23;20045;-96
2023/02/25 19:09:11;;;;;;;3.35;1.77;;;;;;;;;;6202115;23;20097;-92
2023/02/25 19:11:40;;;;;;;3.13;1.80;;;;;;;;;;6201218;23;20056;-95
2023/02/25 19:17:29;;;;;;;5.07;2.13;;;;;;;;;;6230238;23;20031;-95
2023/02/25 20:16:17;;;;;;;4.20;3.22;;;;;;;;;;6190393;22;20114;-94
2023/02/25 20:21:54;;;;;;;7.90;4.10;;;;;;;;;;6159720;23;20009;-90
2023/02/25 20:24:23;;;;;;;4.55;2.63;;;;;;;;;;6204222;23;20009;-90
2023/02/25 20:29:47;;;;;;;18.60;6.15;;;;;;;;;;6231260;22;20051;-90
2023/02/25 21:21:04;;;;;;;;;;;;;;;;;;;;;
2023/02/25 21:32:23;;;;;;;9.55;4.93;;;;;;;;;;6216731;22;20031;-91
2023/02/25 21:51:48;;;;;;;7.30;4.82;;;;;;;;;;6236997;22;20035;-89
2023/02/25 21:54:14;;;;;;;6.30;4.10;;;;;;;;;;6213120;23;20019;-88
2023/02/25 22:55:59;;;;;;;11.13;4.53;;;;;;;;;;6167930;22;20061;-88
2023/02/25 23:01:42;;;;;;;6.28;3.90;;;;;;;;;;6154488;22;20021;-91
2023/02/25 23:07:42;;;;;;;5.65;3.50;;;;;;;;;;6169454;22;20048;-92
